Terminal Aerodrome Forecast
Issued by NWS Wilmington, NC

Home | Current Version | Previous Version | Text Only | Print | Product List | Glossary On
Versions: 1 2 3 4 5 6 7 8 9 10 11 12 13
000
FTUS42 KILM 251720
TAFILM
TAF
KILM 251720Z 2518/2618 19010KT P6SM BKN060
     FM252000 19009KT P6SM SCT060 SCT150
     FM252300 17004KT P6SM SCT250
     FM261500 15005KT P6SM BKN050=

USA.gov is the U.S. government's official web portal to all federal, state and local government web resources and services.